createdAt,value
2019-03-24T00:01:28.654Z,12.45
2019-03-24T00:03:59.145Z,12.41
2019-03-24T00:06:29.573Z,12.39
2019-03-24T00:09:00.132Z,12.43
2019-03-24T00:11:30.851Z,12.43
2019-03-24T00:14:01.612Z,12.41
2019-03-24T00:16:32.221Z,12.37
2019-03-24T00:19:03.926Z,12.38
2019-03-24T00:21:35.913Z,12.35
2019-03-24T00:24:07.243Z,12.34
2019-03-24T00:26:37.983Z,12.38
2019-03-24T00:29:08.491Z,12.36
2019-03-24T00:31:39.566Z,12.36
2019-03-24T00:34:11.062Z,12.31
2019-03-24T00:36:41.431Z,12.29
2019-03-24T00:39:11.831Z,12.31
2019-03-24T00:41:43.276Z,12.33
2019-03-24T00:44:14.949Z,12.33
2019-03-24T00:46:45.511Z,12.32
2019-03-24T00:49:16.371Z,12.29
2019-03-24T00:51:46.921Z,12.28
2019-03-24T00:54:17.535Z,12.27
2019-03-24T00:56:48.278Z,12.26
2019-03-24T00:59:18.673Z,12.25
2019-03-24T01:01:49.135Z,12.25
2019-03-24T01:04:20.080Z,12.22
2019-03-24T01:06:50.893Z,12.20
2019-03-24T01:09:21.536Z,12.22
2019-03-24T01:11:51.989Z,12.18
2019-03-24T01:14:22.425Z,12.15
2019-03-24T01:16:54.065Z,12.13
2019-03-24T01:19:24.573Z,12.12
2019-03-24T01:21:54.947Z,12.11
2019-03-24T01:24:25.464Z,12.07
2019-03-24T01:26:57.192Z,12.07
2019-03-24T01:29:29.043Z,12.03
2019-03-24T01:31:59.863Z,12.01
2019-03-24T01:34:30.338Z,11.95
2019-03-24T01:37:00.759Z,11.91
2019-03-24T01:39:31.394Z,11.89
2019-03-24T01:42:01.776Z,11.92
2019-03-24T01:44:33.241Z,11.91
2019-03-24T01:47:03.728Z,11.91
2019-03-24T01:49:35.283Z,11.91
2019-03-24T01:52:06.366Z,11.91
2019-03-24T01:54:36.964Z,11.91
2019-03-24T01:57:07.847Z,11.91
2019-03-24T01:59:38.225Z,11.86
2019-03-24T02:02:11.865Z,11.84
2019-03-24T02:04:42.501Z,11.87
2019-03-24T02:07:13.605Z,11.77
2019-03-24T02:09:44.172Z,11.80
2019-03-24T02:12:15.569Z,11.78
2019-03-24T02:14:45.972Z,11.81
2019-03-24T02:17:17.868Z,11.77
2019-03-24T02:19:48.617Z,11.76
2019-03-24T02:22:19.412Z,11.71
2019-03-24T02:24:50.130Z,11.69
2019-03-24T02:27:20.888Z,11.69
2019-03-24T02:29:52.631Z,11.72
2019-03-24T02:32:24.133Z,11.72
2019-03-24T02:34:55.336Z,11.72
2019-03-24T02:37:25.783Z,11.76
2019-03-24T02:39:56.158Z,11.74
2019-03-24T02:42:28.029Z,11.75
2019-03-24T02:45:00.402Z,11.74
2019-03-24T02:47:31.126Z,11.75
2019-03-24T02:50:11.307Z,11.79
2019-03-24T02:52:41.686Z,11.69
2019-03-24T02:55:13.668Z,11.66
2019-03-24T02:57:44.051Z,11.61
2019-03-24T03:00:16.483Z,11.53
2019-03-24T03:02:46.960Z,11.48
2019-03-24T03:05:17.622Z,11.54
2019-03-24T03:07:48.417Z,11.53
2019-03-24T03:10:19.733Z,11.54
2019-03-24T03:12:50.970Z,11.56
2019-03-24T03:15:21.631Z,11.50
2019-03-24T03:17:52.865Z,11.47
2019-03-24T03:20:25.283Z,11.44
2019-03-24T03:22:55.741Z,11.41
2019-03-24T03:25:26.104Z,11.40
2019-03-24T03:27:56.866Z,11.39
2019-03-24T03:30:27.451Z,11.30
2019-03-24T03:32:58.378Z,11.28
2019-03-24T03:35:30.107Z,11.26
2019-03-24T03:38:00.622Z,11.25
2019-03-24T03:40:32.882Z,11.17
2019-03-24T03:43:04.673Z,11.13
2019-03-24T03:45:35.097Z,11.16
2019-03-24T03:48:05.956Z,11.17
2019-03-24T03:50:36.771Z,11.16
2019-03-24T03:53:08.812Z,11.19
2019-03-24T03:55:39.618Z,11.17
2019-03-24T03:58:10.014Z,11.15
2019-03-24T04:00:41.730Z,11.02
2019-03-24T04:03:12.800Z,11.02
2019-03-24T04:05:43.376Z,10.97
2019-03-24T04:08:15.155Z,11.00
2019-03-24T04:10:45.827Z,11.05
2019-03-24T04:13:16.241Z,11.05
2019-03-24T04:15:46.942Z,10.33
2019-03-24T04:18:17.849Z,11.04
2019-03-24T04:20:48.321Z,11.00
2019-03-24T04:23:18.770Z,11.02
2019-03-24T04:25:49.397Z,11.03
2019-03-24T04:28:19.839Z,10.43
2019-03-24T04:30:51.502Z,11.03
2019-03-24T04:33:22.203Z,10.99
2019-03-24T04:35:52.720Z,11.00
2019-03-24T04:38:24.424Z,10.99
2019-03-24T04:40:56.190Z,11.00
2019-03-24T04:43:26.836Z,11.00
2019-03-24T04:45:57.277Z,11.00
2019-03-24T04:48:27.611Z,11.01
2019-03-24T04:50:58.123Z,10.99
2019-03-24T04:53:28.769Z,11.02
2019-03-24T04:56:00.664Z,10.94
2019-03-24T04:58:31.578Z,10.92
2019-03-24T05:01:02.763Z,10.91
2019-03-24T05:03:34.403Z,10.92
2019-03-24T05:06:06.302Z,10.92
2019-03-24T05:08:37.820Z,10.94
2019-03-24T05:11:08.468Z,10.94
2019-03-24T05:13:39.080Z,10.95
2019-03-24T05:16:10.040Z,10.97
2019-03-24T05:18:40.559Z,11.00
2019-03-24T05:21:10.931Z,10.99
2019-03-24T05:23:41.721Z,10.86
2019-03-24T05:26:12.074Z,10.24
2019-03-24T05:28:43.602Z,10.92
2019-03-24T05:31:13.980Z,10.90
2019-03-24T05:33:44.352Z,10.92
2019-03-24T05:36:14.646Z,10.90
2019-03-24T05:38:45.415Z,10.91
2019-03-24T05:41:16.925Z,10.87
2019-03-24T05:43:47.376Z,10.88
2019-03-24T05:46:17.974Z,10.85
2019-03-24T05:48:48.350Z,10.84
2019-03-24T05:51:25.286Z,10.83
2019-03-24T05:53:51.887Z,10.80
2019-03-24T05:56:22.292Z,10.79
2019-03-24T05:58:52.856Z,10.79
2019-03-24T06:01:23.979Z,10.82
2019-03-24T06:03:54.379Z,10.80
2019-03-24T06:06:24.786Z,10.77
2019-03-24T06:08:56.609Z,10.79
2019-03-24T06:11:28.190Z,10.85
2019-03-24T06:14:00.400Z,10.19
2019-03-24T06:16:30.853Z,10.84
2019-03-24T06:19:02.651Z,10.84
2019-03-24T06:21:33.389Z,10.85
2019-03-24T06:24:04.123Z,10.84
2019-03-24T06:26:34.909Z,10.26
2019-03-24T06:29:05.761Z,10.91
2019-03-24T06:31:36.322Z,10.94
2019-03-24T06:34:06.878Z,11.00
2019-03-24T06:36:37.660Z,10.98
2019-03-24T06:39:08.985Z,10.49
2019-03-24T06:41:39.399Z,10.95
2019-03-24T06:44:10.845Z,11.02
2019-03-24T06:46:41.241Z,10.97
2019-03-24T06:49:13.279Z,11.00
2019-03-24T06:51:44.031Z,10.99
2019-03-24T06:54:14.345Z,11.03
2019-03-24T06:56:44.961Z,11.12
2019-03-24T06:59:15.544Z,11.15
2019-03-24T07:01:46.094Z,10.55
2019-03-24T07:04:16.490Z,11.22
2019-03-24T07:06:46.911Z,11.33
2019-03-24T07:09:17.340Z,11.35
2019-03-24T07:11:49.226Z,11.42
2019-03-24T07:14:19.706Z,11.48
2019-03-24T07:16:50.713Z,11.49
2019-03-24T07:19:22.474Z,11.51
2019-03-24T07:21:53.879Z,11.58
2019-03-24T07:24:24.336Z,11.64
2019-03-24T07:26:54.829Z,11.68
2019-03-24T07:29:25.474Z,11.67
2019-03-24T07:31:55.996Z,11.69
2019-03-24T07:34:28.257Z,11.73
2019-03-24T07:36:58.673Z,11.78
2019-03-24T07:39:30.434Z,11.82
2019-03-24T07:42:01.421Z,11.84
2019-03-24T07:44:32.170Z,11.92
2019-03-24T07:47:16.952Z,12.05
2019-03-24T07:49:47.843Z,12.22
2019-03-24T07:52:18.290Z,12.37
2019-03-24T07:54:49.089Z,12.41
2019-03-24T07:57:20.722Z,12.44
2019-03-24T07:59:51.545Z,12.52
2019-03-24T08:02:22.583Z,12.42
2019-03-24T08:04:52.952Z,12.51
2019-03-24T08:07:23.800Z,12.52
2019-03-24T08:09:54.264Z,12.45
2019-03-24T08:12:25.096Z,12.59
2019-03-24T08:14:57.209Z,12.63
2019-03-24T08:17:27.608Z,12.66
2019-03-24T08:19:57.955Z,12.68
2019-03-24T08:22:28.927Z,12.68
2019-03-24T08:25:00.730Z,12.72
2019-03-24T08:27:31.247Z,12.76
2019-03-24T08:30:02.882Z,12.80
2019-03-24T08:32:34.833Z,12.88
2019-03-24T08:35:08.450Z,12.83
2019-03-24T08:37:39.689Z,12.65
2019-03-24T08:40:11.775Z,12.72
2019-03-24T08:42:42.817Z,12.79
2019-03-24T08:45:16.175Z,12.87
2019-03-24T08:47:50.616Z,12.90
2019-03-24T08:50:20.987Z,12.91
2019-03-24T08:52:51.461Z,12.84
2019-03-24T08:55:24.601Z,12.79
2019-03-24T08:57:56.108Z,12.83
2019-03-24T09:00:31.000Z,12.80
2019-03-24T09:03:02.009Z,12.83
2019-03-24T09:05:34.122Z,12.87
2019-03-24T09:08:05.036Z,12.79
2019-03-24T09:10:36.803Z,12.82
2019-03-24T09:13:09.023Z,12.82
2019-03-24T09:15:40.217Z,12.70
2019-03-24T09:18:22.992Z,12.63
2019-03-24T09:20:54.000Z,12.54
2019-03-24T09:23:26.176Z,12.52
2019-03-24T09:25:59.410Z,12.50
2019-03-24T09:28:32.519Z,12.54
2019-03-24T09:31:12.300Z,12.54
2019-03-24T09:33:43.650Z,11.99
2019-03-24T09:36:14.402Z,12.62
2019-03-24T09:38:46.345Z,12.49
2019-03-24T09:41:17.789Z,12.47
2019-03-24T09:43:48.843Z,12.59
2019-03-24T09:46:20.426Z,12.73
2019-03-24T09:49:02.459Z,12.47
2019-03-24T09:51:31.800Z,12.85
2019-03-24T09:54:04.018Z,12.46
2019-03-24T09:56:35.976Z,13.05
2019-03-24T09:59:06.856Z,13.18
2019-03-24T10:01:38.425Z,13.25
2019-03-24T10:04:11.807Z,13.27
2019-03-24T10:06:43.124Z,13.30
2019-03-24T10:09:15.075Z,13.31
2019-03-24T10:11:46.099Z,13.29
2019-03-24T10:14:18.579Z,13.41
2019-03-24T10:16:51.217Z,13.44
2019-03-24T10:19:24.601Z,12.96
2019-03-24T10:21:57.834Z,13.66
2019-03-24T10:24:31.000Z,13.74
2019-03-24T10:27:01.571Z,13.65
2019-03-24T10:29:32.223Z,13.90
2019-03-24T10:32:03.984Z,13.96
2019-03-24T10:34:35.019Z,14.13
2019-03-24T10:37:07.336Z,14.10
2019-03-24T10:39:39.035Z,14.49
2019-03-24T10:42:10.873Z,14.62
2019-03-24T10:44:41.974Z,14.69
2019-03-24T10:47:13.197Z,14.79
2019-03-24T10:49:44.487Z,14.72
2019-03-24T10:52:15.120Z,14.69
2019-03-24T10:54:46.389Z,14.79
2019-03-24T10:57:16.872Z,14.94
2019-03-24T10:59:47.256Z,15.12
2019-03-24T11:02:17.740Z,15.13
2019-03-24T11:04:48.615Z,15.12
2019-03-24T11:07:20.842Z,15.11
2019-03-24T11:09:51.455Z,15.10
2019-03-24T11:12:23.038Z,15.06
2019-03-24T11:14:53.855Z,15.00
2019-03-24T11:17:25.510Z,15.01
2019-03-24T11:19:56.246Z,14.84
2019-03-24T11:22:27.904Z,14.77
2019-03-24T11:24:58.577Z,14.74
2019-03-24T11:27:30.140Z,14.69
2019-03-24T11:30:02.548Z,14.83
2019-03-24T11:32:34.182Z,14.97
2019-03-24T11:35:05.008Z,15.10
2019-03-24T11:37:35.827Z,15.04
2019-03-24T11:40:07.778Z,14.98
2019-03-24T11:42:38.497Z,14.67
2019-03-24T11:45:10.713Z,14.60
2019-03-24T11:47:41.477Z,14.47
2019-03-24T11:50:13.582Z,14.44
2019-03-24T11:52:47.915Z,14.35
2019-03-24T11:55:20.302Z,14.30
2019-03-24T11:57:51.575Z,14.29
2019-03-24T12:00:30.647Z,14.34
2019-03-24T12:03:02.624Z,14.21
2019-03-24T12:05:33.494Z,13.97
2019-03-24T12:08:04.986Z,13.97
2019-03-24T12:10:36.145Z,13.82
2019-03-24T12:13:07.496Z,13.39
2019-03-24T12:15:38.714Z,12.69
2019-03-24T12:18:09.540Z,13.37
2019-03-24T12:20:40.529Z,13.35
2019-03-24T12:23:12.407Z,13.20
2019-03-24T12:25:43.223Z,13.20
2019-03-24T12:28:14.067Z,13.27
2019-03-24T12:30:44.499Z,13.33
2019-03-24T12:33:15.549Z,13.31
2019-03-24T12:35:46.060Z,13.35
2019-03-24T12:38:16.491Z,13.38
2019-03-24T12:40:47.783Z,13.51
2019-03-24T12:43:19.632Z,13.59
2019-03-24T12:45:54.585Z,13.61
2019-03-24T12:49:19.164Z,13.66
2019-03-24T12:51:50.278Z,13.66
2019-03-24T12:54:21.823Z,13.78
2019-03-24T12:56:52.452Z,13.85
2019-03-24T12:59:23.223Z,13.76
2019-03-24T13:01:53.670Z,13.62
2019-03-24T13:04:24.274Z,13.49
2019-03-24T13:06:55.314Z,13.44
2019-03-24T13:09:26.490Z,13.44
2019-03-24T13:11:57.188Z,13.33
2019-03-24T13:14:30.640Z,13.08
2019-03-24T13:17:00.454Z,12.85
2019-03-24T13:19:31.496Z,12.81
2019-03-24T13:22:04.819Z,12.83
2019-03-24T13:24:35.432Z,12.70
2019-03-24T13:27:07.109Z,12.69
2019-03-24T13:29:41.376Z,12.51
2019-03-24T13:32:12.566Z,12.47
2019-03-24T13:34:43.215Z,12.15
2019-03-24T13:37:13.668Z,12.15
2019-03-24T13:39:44.363Z,12.15
2019-03-24T13:42:15.252Z,12.07
2019-03-24T13:44:45.829Z,11.88
2019-03-24T13:47:16.542Z,11.97
2019-03-24T13:49:47.708Z,12.04
2019-03-24T13:52:18.978Z,12.10
2019-03-24T13:54:50.069Z,12.18
2019-03-24T13:57:20.548Z,12.27
2019-03-24T13:59:51.512Z,12.31
2019-03-24T14:02:22.362Z,12.35
2019-03-24T14:04:53.000Z,12.27
2019-03-24T14:07:24.832Z,12.23
2019-03-24T14:09:57.280Z,12.15
2019-03-24T14:12:29.628Z,12.08
2019-03-24T14:15:00.484Z,12.10
2019-03-24T14:17:31.030Z,12.15
2019-03-24T14:20:01.578Z,12.14
2019-03-24T14:22:32.482Z,12.03
2019-03-24T14:25:09.282Z,12.05
2019-03-24T14:27:40.685Z,12.02
2019-03-24T14:30:12.628Z,11.78
2019-03-24T14:32:43.913Z,11.67
2019-03-24T14:35:17.912Z,11.60
2019-03-24T14:37:49.795Z,11.58
2019-03-24T14:40:20.621Z,11.63
2019-03-24T14:42:51.099Z,11.49
2019-03-24T14:45:21.662Z,11.23
2019-03-24T14:47:52.309Z,11.37
2019-03-24T14:50:22.711Z,11.41
2019-03-24T14:52:53.256Z,11.70
2019-03-24T14:55:24.170Z,11.95
2019-03-24T14:57:54.718Z,12.08
2019-03-24T15:00:35.753Z,12.21
2019-03-24T15:03:07.034Z,12.34
2019-03-24T15:05:39.216Z,12.45
2019-03-24T15:08:10.042Z,12.49
2019-03-24T15:10:41.342Z,12.56
2019-03-24T15:13:13.317Z,12.67
2019-03-24T15:15:44.608Z,12.67
2019-03-24T15:18:16.638Z,12.64
2019-03-24T15:20:47.268Z,12.64
2019-03-24T15:23:20.676Z,12.62
2019-03-24T15:25:51.870Z,12.54
2019-03-24T15:28:27.471Z,12.54
2019-03-24T15:30:59.214Z,12.65
2019-03-24T15:33:29.836Z,12.70
2019-03-24T15:36:00.644Z,12.66
2019-03-24T15:38:31.215Z,12.55
2019-03-24T15:41:02.915Z,12.61
2019-03-24T15:43:33.392Z,12.66
2019-03-24T15:46:04.125Z,12.75
2019-03-24T15:48:34.875Z,12.84
2019-03-24T15:51:16.379Z,12.93
2019-03-24T15:53:38.947Z,12.96
2019-03-24T15:56:09.385Z,12.87
2019-03-24T15:58:40.977Z,12.93
2019-03-24T16:01:11.712Z,13.09
2019-03-24T16:03:42.276Z,13.26
2019-03-24T16:06:25.690Z,13.41
2019-03-24T16:08:57.386Z,13.39
2019-03-24T16:11:28.131Z,13.38
2019-03-24T16:14:00.476Z,13.16
2019-03-24T16:16:31.069Z,13.03
2019-03-24T16:19:03.237Z,12.99
2019-03-24T16:21:35.471Z,12.89
2019-03-24T16:24:08.043Z,12.90
2019-03-24T16:26:40.531Z,12.91
2019-03-24T16:29:13.758Z,12.86
2019-03-24T16:31:44.685Z,12.83
2019-03-24T16:34:16.290Z,12.77
2019-03-24T16:36:47.004Z,12.65
2019-03-24T16:39:18.048Z,12.52
2019-03-24T16:41:49.761Z,12.48
2019-03-24T16:44:20.949Z,12.38
2019-03-24T16:46:53.505Z,12.33
2019-03-24T16:49:25.598Z,12.34
2019-03-24T16:51:57.268Z,12.33
2019-03-24T16:54:33.669Z,12.29
2019-03-24T16:57:05.950Z,12.18
2019-03-24T16:59:38.182Z,11.97
2019-03-24T17:02:11.102Z,11.89
2019-03-24T17:04:44.353Z,11.80
2019-03-24T17:07:16.581Z,11.65
2019-03-24T17:09:48.119Z,11.43
2019-03-24T17:12:22.932Z,11.32
2019-03-24T17:14:56.302Z,11.22
2019-03-24T17:17:36.382Z,11.11
2019-03-24T17:20:10.896Z,11.01
2019-03-24T17:22:51.560Z,10.95
2019-03-24T17:25:22.269Z,10.87
2019-03-24T17:27:53.358Z,10.86
2019-03-24T17:30:24.344Z,10.80
2019-03-24T17:32:56.098Z,10.73
2019-03-24T17:35:27.782Z,10.70
2019-03-24T17:37:59.523Z,10.61
2019-03-24T17:40:30.694Z,10.55
2019-03-24T17:43:01.657Z,10.53
2019-03-24T17:45:32.703Z,10.55
2019-03-24T17:48:04.816Z,10.50
2019-03-24T17:50:38.537Z,10.49
2019-03-24T17:53:09.835Z,10.48
2019-03-24T17:55:40.773Z,10.46
2019-03-24T17:58:11.330Z,10.42
2019-03-24T18:00:45.879Z,10.31
2019-03-24T18:03:16.726Z,10.28
2019-03-24T18:05:47.617Z,10.22
2019-03-24T18:08:18.565Z,10.18
2019-03-24T18:10:49.226Z,10.12
2019-03-24T18:13:19.995Z,10.07
2019-03-24T18:15:51.258Z,9.94
2019-03-24T18:18:23.028Z,9.92
2019-03-24T18:20:54.194Z,9.84
2019-03-24T18:23:24.650Z,9.82
2019-03-24T18:25:55.153Z,9.78
2019-03-24T18:28:27.375Z,9.70
2019-03-24T18:30:59.431Z,9.66
2019-03-24T18:33:30.117Z,9.61
2019-03-24T18:36:00.657Z,9.51
2019-03-24T18:38:31.153Z,9.50
2019-03-24T18:41:02.868Z,9.48
2019-03-24T18:43:33.345Z,9.45
2019-03-24T18:46:04.060Z,9.38
2019-03-24T18:48:35.066Z,9.35
2019-03-24T18:51:06.200Z,9.30
2019-03-24T18:53:36.919Z,8.62
2019-03-24T18:56:08.787Z,9.28
2019-03-24T18:58:40.257Z,9.30
2019-03-24T19:01:11.131Z,9.35
2019-03-24T19:03:42.303Z,9.38
2019-03-24T19:06:13.234Z,9.32
2019-03-24T19:08:45.412Z,9.31
2019-03-24T19:11:15.971Z,9.28
2019-03-24T19:13:46.719Z,9.27
2019-03-24T19:16:18.846Z,9.18
2019-03-24T19:18:49.557Z,9.11
2019-03-24T19:21:20.036Z,9.08
2019-03-24T19:23:52.276Z,9.08
2019-03-24T19:26:22.753Z,9.07
2019-03-24T19:28:54.708Z,9.05
2019-03-24T19:31:26.493Z,8.96
2019-03-24T19:33:57.400Z,8.89
2019-03-24T19:36:29.336Z,8.89
2019-03-24T19:39:01.653Z,8.81
2019-03-24T19:41:32.284Z,8.78
2019-03-24T19:44:03.257Z,8.77
2019-03-24T19:46:34.166Z,8.77
2019-03-24T19:49:05.826Z,8.83
2019-03-24T19:51:36.604Z,8.91
2019-03-24T19:54:07.361Z,9.13
2019-03-24T19:56:39.225Z,9.13
2019-03-24T19:59:10.341Z,9.22
2019-03-24T20:01:40.946Z,9.25
2019-03-24T20:04:12.892Z,9.29
2019-03-24T20:06:43.513Z,9.31
2019-03-24T20:09:15.399Z,9.38
2019-03-24T20:11:46.110Z,9.41
2019-03-24T20:14:16.664Z,9.42
2019-03-24T20:16:47.593Z,9.43
2019-03-24T20:19:19.467Z,9.38
2019-03-24T20:21:50.505Z,9.22
2019-03-24T20:24:21.470Z,9.11
2019-03-24T20:26:52.260Z,9.07
2019-03-24T20:29:22.791Z,9.03
2019-03-24T20:31:53.881Z,9.10
2019-03-24T20:34:24.323Z,9.16
2019-03-24T20:36:55.203Z,9.05
2019-03-24T20:39:26.701Z,9.00
2019-03-24T20:41:57.214Z,8.84
2019-03-24T20:44:28.374Z,8.78
2019-03-24T20:46:59.106Z,8.68
2019-03-24T20:49:29.747Z,8.68
2019-03-24T20:52:00.509Z,8.60
2019-03-24T20:54:31.081Z,8.52
2019-03-24T20:57:02.878Z,8.48
2019-03-24T20:59:34.349Z,8.48
2019-03-24T21:02:05.772Z,8.47
2019-03-24T21:04:37.900Z,8.47
2019-03-24T21:07:08.882Z,8.57
2019-03-24T21:09:40.755Z,8.57
2019-03-24T21:12:11.221Z,8.64
2019-03-24T21:14:42.449Z,8.64
2019-03-24T21:17:13.867Z,8.58
2019-03-24T21:19:44.984Z,8.59
2019-03-24T21:22:17.396Z,8.60
2019-03-24T21:24:48.054Z,8.49
2019-03-24T21:27:18.588Z,8.49
2019-03-24T21:29:49.383Z,8.48
2019-03-24T21:32:21.206Z,8.42
2019-03-24T21:34:51.911Z,8.42
2019-03-24T21:37:22.341Z,8.35
2019-03-24T21:39:53.248Z,8.29
2019-03-24T21:42:24.084Z,8.23
2019-03-24T21:44:54.905Z,8.05
2019-03-24T21:47:25.881Z,8.05
2019-03-24T21:49:57.002Z,8.01
2019-03-24T21:52:27.613Z,7.92
2019-03-24T21:54:59.400Z,7.86
2019-03-24T21:57:30.253Z,7.86
2019-03-24T22:00:00.656Z,7.81
2019-03-24T22:02:31.123Z,7.72
2019-03-24T22:05:01.906Z,7.63
2019-03-24T22:07:34.556Z,7.60
2019-03-24T22:10:07.869Z,7.55
2019-03-24T22:12:39.869Z,7.49
2019-03-24T22:15:10.800Z,7.46
2019-03-24T22:17:41.789Z,7.42
2019-03-24T22:20:12.494Z,7.38
2019-03-24T22:22:43.014Z,7.37
2019-03-24T22:25:13.966Z,7.29
2019-03-24T22:27:44.699Z,7.26
2019-03-24T22:30:15.633Z,7.25
2019-03-24T22:32:46.749Z,7.20
2019-03-24T22:35:17.282Z,7.20
2019-03-24T22:37:48.150Z,7.16
2019-03-24T22:40:19.948Z,7.13
2019-03-24T22:42:50.453Z,7.14
2019-03-24T22:45:21.362Z,7.08
2019-03-24T22:47:51.815Z,7.06
2019-03-24T22:50:22.888Z,7.02
2019-03-24T22:52:53.799Z,6.98
2019-03-24T22:55:24.369Z,6.94
2019-03-24T22:57:55.052Z,6.93
2019-03-24T23:00:43.647Z,6.93
2019-03-24T23:03:15.311Z,6.87
2019-03-24T23:05:51.597Z,6.83
2019-03-24T23:08:22.315Z,6.83
2019-03-24T23:10:52.897Z,6.80
2019-03-24T23:13:23.848Z,6.77
2019-03-24T23:15:54.542Z,6.74
2019-03-24T23:18:25.186Z,6.70
2019-03-24T23:20:55.621Z,6.67
2019-03-24T23:23:26.009Z,6.66
2019-03-24T23:25:57.775Z,6.60
2019-03-24T23:28:29.347Z,6.58
2019-03-24T23:31:00.201Z,6.48
2019-03-24T23:33:31.150Z,6.46
2019-03-24T23:36:02.738Z,6.45
2019-03-24T23:38:33.237Z,6.42
2019-03-24T23:41:04.258Z,6.40
2019-03-24T23:43:34.826Z,6.39
2019-03-24T23:46:06.120Z,6.38
2019-03-24T23:48:36.526Z,6.34
2019-03-24T23:51:07.104Z,6.31
2019-03-24T23:53:38.105Z,6.30
2019-03-24T23:56:09.115Z,6.27
2019-03-24T23:58:41.269Z,6.25
